sensor_id;sensor_type;location;lat;lon;timestamp;temperature;humidity
21047;DHT22;10682;50.874;3.656;2023-02-01T00:00:39;7.50;99.90
21047;DHT22;10682;50.874;3.656;2023-02-01T00:03:06;7.50;99.90
21047;DHT22;10682;50.874;3.656;2023-02-01T00:05:35;7.50;99.90
21047;DHT22;10682;50.874;3.656;2023-02-01T00:08:02;7.60;99.90
21047;DHT22;10682;50.874;3.656;2023-02-01T00:10:29;7.60;99.90
21047;DHT22;10682;50.874;3.656;2023-02-01T00:12:56;7.60;99.90
21047;DHT22;10682;50.874;3.656;2023-02-01T00:15:25;7.60;99.90
21047;DHT22;10682;50.874;3.656;2023-02-01T00:17:54;7.60;99.90
21047;DHT22;10682;50.874;3.656;2023-02-01T00:20:22;7.60;99.90
21047;DHT22;10682;50.874;3.656;2023-02-01T00:22:58;7.60;99.90
21047;DHT22;10682;50.874;3.656;2023-02-01T00:25:25;7.60;99.90
21047;DHT22;10682;50.874;3.656;2023-02-01T00:27:52;7.60;99.90
21047;DHT22;10682;50.874;3.656;2023-02-01T00:30:19;7.60;99.90
21047;DHT22;10682;50.874;3.656;2023-02-01T00:32:47;7.60;99.90
21047;DHT22;10682;50.874;3.656;2023-02-01T00:35:14;7.60;99.90
21047;DHT22;10682;50.874;3.656;2023-02-01T00:37:41;7.50;99.90
21047;DHT22;10682;50.874;3.656;2023-02-01T00:40:08;7.50;99.90
21047;DHT22;10682;50.874;3.656;2023-02-01T00:42:36;7.50;99.90
21047;DHT22;10682;50.874;3.656;2023-02-01T00:45:03;7.50;99.90
21047;DHT22;10682;50.874;3.656;2023-02-01T00:47:31;7.50;99.90
21047;DHT22;10682;50.874;3.656;2023-02-01T00:49:58;7.50;99.90
21047;DHT22;10682;50.874;3.656;2023-02-01T00:52:25;7.40;99.90
21047;DHT22;10682;50.874;3.656;2023-02-01T00:54:52;7.40;99.90
21047;DHT22;10682;50.874;3.656;2023-02-01T00:57:19;7.40;99.90
21047;DHT22;10682;50.874;3.656;2023-02-01T00:59:47;7.20;99.90
21047;DHT22;10682;50.874;3.656;2023-02-01T01:02:14;7.20;99.90
21047;DHT22;10682;50.874;3.656;2023-02-01T01:04:41;7.10;99.90
21047;DHT22;10682;50.874;3.656;2023-02-01T01:07:11;7.10;99.90
21047;DHT22;10682;50.874;3.656;2023-02-01T01:09:38;7.10;99.90
21047;DHT22;10682;50.874;3.656;2023-02-01T01:12:05;7.00;99.90
21047;DHT22;10682;50.874;3.656;2023-02-01T01:14:32;7.00;99.90
21047;DHT22;10682;50.874;3.656;2023-02-01T01:17:00;7.00;99.90
21047;DHT22;10682;50.874;3.656;2023-02-01T01:19:27;7.00;99.90
21047;DHT22;10682;50.874;3.656;2023-02-01T01:21:54;6.90;99.90
21047;DHT22;10682;50.874;3.656;2023-02-01T01:24:22;6.80;99.90
21047;DHT22;10682;50.874;3.656;2023-02-01T01:26:49;6.80;99.90
21047;DHT22;10682;50.874;3.656;2023-02-01T01:29:16;6.70;99.90
21047;DHT22;10682;50.874;3.656;2023-02-01T01:31:44;6.70;99.90
21047;DHT22;10682;50.874;3.656;2023-02-01T01:34:11;6.70;99.90
21047;DHT22;10682;50.874;3.656;2023-02-01T01:36:42;6.60;99.90
21047;DHT22;10682;50.874;3.656;2023-02-01T01:39:09;6.60;99.90
21047;DHT22;10682;50.874;3.656;2023-02-01T01:41:37;6.70;99.90
21047;DHT22;10682;50.874;3.656;2023-02-01T01:44:06;6.70;99.90
21047;DHT22;10682;50.874;3.656;2023-02-01T01:46:53;6.80;99.90
21047;DHT22;10682;50.874;3.656;2023-02-01T01:49:24;6.80;99.90
21047;DHT22;10682;50.874;3.656;2023-02-01T01:51:55;6.90;99.90
21047;DHT22;10682;50.874;3.656;2023-02-01T01:54:29;6.90;99.90
21047;DHT22;10682;50.874;3.656;2023-02-01T01:57:23;6.90;99.90
21047;DHT22;10682;50.874;3.656;2023-02-01T01:59:59;7.00;99.90
21047;DHT22;10682;50.874;3.656;2023-02-01T02:02:39;7.00;99.90
21047;DHT22;10682;50.874;3.656;2023-02-01T02:05:18;7.00;99.90
21047;DHT22;10682;50.874;3.656;2023-02-01T02:07:48;7.00;99.90
21047;DHT22;10682;50.874;3.656;2023-02-01T02:10:17;7.00;99.90
21047;DHT22;10682;50.874;3.656;2023-02-01T02:12:50;7.00;99.90
21047;DHT22;10682;50.874;3.656;2023-02-01T02:15:17;7.00;99.90
21047;DHT22;10682;50.874;3.656;2023-02-01T02:18:11;7.00;99.90
21047;DHT22;10682;50.874;3.656;2023-02-01T02:21:08;7.00;99.90
21047;DHT22;10682;50.874;3.656;2023-02-01T02:30:09;6.80;99.90
21047;DHT22;10682;50.874;3.656;2023-02-01T02:36:22;6.80;99.90
21047;DHT22;10682;50.874;3.656;2023-02-01T02:39:34;6.80;99.90
21047;DHT22;10682;50.874;3.656;2023-02-01T02:45:52;6.70;99.90
21047;DHT22;10682;50.874;3.656;2023-02-01T02:52:10;6.60;99.90
21047;DHT22;10682;50.874;3.656;2023-02-01T02:55:00;6.60;99.90
21047;DHT22;10682;50.874;3.656;2023-02-01T02:57:37;6.60;99.90
21047;DHT22;10682;50.874;3.656;2023-02-01T03:00:29;6.60;99.90
21047;DHT22;10682;50.874;3.656;2023-02-01T03:03:16;6.60;99.90
21047;DHT22;10682;50.874;3.656;2023-02-01T03:06:02;6.60;99.90
21047;DHT22;10682;50.874;3.656;2023-02-01T03:08:31;6.50;99.90
21047;DHT22;10682;50.874;3.656;2023-02-01T03:11:02;6.50;99.90
21047;DHT22;10682;50.874;3.656;2023-02-01T03:16:50;6.50;99.90
21047;DHT22;10682;50.874;3.656;2023-02-01T03:19:36;6.50;99.90
21047;DHT22;10682;50.874;3.656;2023-02-01T03:22:14;6.40;99.90
21047;DHT22;10682;50.874;3.656;2023-02-01T03:25:06;6.40;99.90
21047;DHT22;10682;50.874;3.656;2023-02-01T03:28:08;6.30;99.90
21047;DHT22;10682;50.874;3.656;2023-02-01T03:30:42;6.30;99.90
21047;DHT22;10682;50.874;3.656;2023-02-01T03:33:14;6.30;99.90
21047;DHT22;10682;50.874;3.656;2023-02-01T03:36:15;6.30;99.90
21047;DHT22;10682;50.874;3.656;2023-02-01T03:39:08;6.30;99.90
21047;DHT22;10682;50.874;3.656;2023-02-01T03:41:53;6.30;99.90
21047;DHT22;10682;50.874;3.656;2023-02-01T03:44:23;6.30;99.90
21047;DHT22;10682;50.874;3.656;2023-02-01T03:47:02;6.30;99.90
21047;DHT22;10682;50.874;3.656;2023-02-01T03:49:44;6.30;99.90
21047;DHT22;10682;50.874;3.656;2023-02-01T03:52:20;6.20;99.90
21047;DHT22;10682;50.874;3.656;2023-02-01T03:54:52;6.20;99.90
21047;DHT22;10682;50.874;3.656;2023-02-01T03:57:23;6.10;99.90
21047;DHT22;10682;50.874;3.656;2023-02-01T04:02:34;6.10;99.90
21047;DHT22;10682;50.874;3.656;2023-02-01T04:05:01;6.10;99.90
21047;DHT22;10682;50.874;3.656;2023-02-01T04:07:28;6.00;99.90
21047;DHT22;10682;50.874;3.656;2023-02-01T04:09:55;6.00;99.90
21047;DHT22;10682;50.874;3.656;2023-02-01T04:12:22;6.00;99.90
21047;DHT22;10682;50.874;3.656;2023-02-01T04:14:50;5.90;99.90
21047;DHT22;10682;50.874;3.656;2023-02-01T04:17:17;6.00;99.90
21047;DHT22;10682;50.874;3.656;2023-02-01T04:19:45;6.00;99.90
21047;DHT22;10682;50.874;3.656;2023-02-01T04:22:20;6.00;99.90
21047;DHT22;10682;50.874;3.656;2023-02-01T04:24:47;5.90;99.90
21047;DHT22;10682;50.874;3.656;2023-02-01T04:27:14;5.90;99.90
21047;DHT22;10682;50.874;3.656;2023-02-01T04:29:42;5.80;99.90
21047;DHT22;10682;50.874;3.656;2023-02-01T04:32:09;5.80;99.90
21047;DHT22;10682;50.874;3.656;2023-02-01T04:34:36;5.80;99.90
21047;DHT22;10682;50.874;3.656;2023-02-01T04:37:03;5.70;99.90
21047;DHT22;10682;50.874;3.656;2023-02-01T04:39:30;5.70;99.90
21047;DHT22;10682;50.874;3.656;2023-02-01T04:41:57;5.60;99.90
21047;DHT22;10682;50.874;3.656;2023-02-01T04:44:24;5.60;99.90
21047;DHT22;10682;50.874;3.656;2023-02-01T04:46:51;5.70;99.90
21047;DHT22;10682;50.874;3.656;2023-02-01T04:49:18;5.60;99.90
21047;DHT22;10682;50.874;3.656;2023-02-01T04:51:48;5.60;99.90
21047;DHT22;10682;50.874;3.656;2023-02-01T04:54:15;5.50;99.90
21047;DHT22;10682;50.874;3.656;2023-02-01T04:56:42;5.60;99.90
21047;DHT22;10682;50.874;3.656;2023-02-01T04:59:12;5.50;99.90
21047;DHT22;10682;50.874;3.656;2023-02-01T05:01:39;5.50;99.90
21047;DHT22;10682;50.874;3.656;2023-02-01T05:04:06;5.50;99.90
21047;DHT22;10682;50.874;3.656;2023-02-01T05:06:33;5.50;99.90
21047;DHT22;10682;50.874;3.656;2023-02-01T05:09:01;5.60;99.90
21047;DHT22;10682;50.874;3.656;2023-02-01T05:11:33;5.60;99.90
21047;DHT22;10682;50.874;3.656;2023-02-01T05:14:18;5.60;99.90
21047;DHT22;10682;50.874;3.656;2023-02-01T05:16:45;5.50;99.90
21047;DHT22;10682;50.874;3.656;2023-02-01T05:19:12;5.50;99.90
21047;DHT22;10682;50.874;3.656;2023-02-01T05:21:39;5.50;99.90
21047;DHT22;10682;50.874;3.656;2023-02-01T05:24:08;5.50;99.90
21047;DHT22;10682;50.874;3.656;2023-02-01T05:26:47;5.50;99.90
21047;DHT22;10682;50.874;3.656;2023-02-01T05:29:16;5.50;99.90
21047;DHT22;10682;50.874;3.656;2023-02-01T05:31:45;5.50;99.90
21047;DHT22;10682;50.874;3.656;2023-02-01T05:34:13;5.50;99.90
21047;DHT22;10682;50.874;3.656;2023-02-01T05:36:41;5.60;99.90
21047;DHT22;10682;50.874;3.656;2023-02-01T05:39:09;5.50;99.90
21047;DHT22;10682;50.874;3.656;2023-02-01T05:41:37;5.60;99.90
21047;DHT22;10682;50.874;3.656;2023-02-01T05:44:04;5.50;99.90
21047;DHT22;10682;50.874;3.656;2023-02-01T05:46:35;5.50;99.90
21047;DHT22;10682;50.874;3.656;2023-02-01T05:49:03;5.50;99.90
21047;DHT22;10682;50.874;3.656;2023-02-01T05:51:30;5.50;99.90
21047;DHT22;10682;50.874;3.656;2023-02-01T05:53:58;5.50;99.90
21047;DHT22;10682;50.874;3.656;2023-02-01T05:56:25;5.50;99.90
21047;DHT22;10682;50.874;3.656;2023-02-01T05:58:52;5.40;99.90
21047;DHT22;10682;50.874;3.656;2023-02-01T06:01:19;5.30;99.90
21047;DHT22;10682;50.874;3.656;2023-02-01T06:03:46;5.30;99.90
21047;DHT22;10682;50.874;3.656;2023-02-01T06:06:13;5.30;99.90
21047;DHT22;10682;50.874;3.656;2023-02-01T06:08:40;5.30;99.90
21047;DHT22;10682;50.874;3.656;2023-02-01T06:11:07;5.20;99.90
21047;DHT22;10682;50.874;3.656;2023-02-01T06:13:36;5.10;99.90
21047;DHT22;10682;50.874;3.656;2023-02-01T06:16:05;5.00;99.90
21047;DHT22;10682;50.874;3.656;2023-02-01T06:18:34;5.00;99.90
21047;DHT22;10682;50.874;3.656;2023-02-01T06:21:02;5.00;99.90
21047;DHT22;10682;50.874;3.656;2023-02-01T06:23:30;5.00;99.90
21047;DHT22;10682;50.874;3.656;2023-02-01T06:26:03;5.00;99.90
21047;DHT22;10682;50.874;3.656;2023-02-01T06:28:32;5.00;99.90
21047;DHT22;10682;50.874;3.656;2023-02-01T06:31:06;5.00;99.90
21047;DHT22;10682;50.874;3.656;2023-02-01T06:33:40;5.00;99.90
21047;DHT22;10682;50.874;3.656;2023-02-01T06:36:09;5.00;99.90
21047;DHT22;10682;50.874;3.656;2023-02-01T06:38:39;5.00;99.90
21047;DHT22;10682;50.874;3.656;2023-02-01T06:41:19;5.00;99.90
21047;DHT22;10682;50.874;3.656;2023-02-01T06:43:47;5.00;99.90
21047;DHT22;10682;50.874;3.656;2023-02-01T06:46:14;5.00;99.90
21047;DHT22;10682;50.874;3.656;2023-02-01T06:48:41;5.00;99.90
21047;DHT22;10682;50.874;3.656;2023-02-01T06:51:25;5.00;99.90
21047;DHT22;10682;50.874;3.656;2023-02-01T06:54:06;4.90;99.90
21047;DHT22;10682;50.874;3.656;2023-02-01T06:56:33;4.90;99.90
21047;DHT22;10682;50.874;3.656;2023-02-01T06:59:03;4.80;99.90
21047;DHT22;10682;50.874;3.656;2023-02-01T07:01:31;4.70;99.90
21047;DHT22;10682;50.874;3.656;2023-02-01T07:03:58;4.70;99.90
21047;DHT22;10682;50.874;3.656;2023-02-01T07:06:31;4.70;99.90
21047;DHT22;10682;50.874;3.656;2023-02-01T07:08:58;4.70;99.90
21047;DHT22;10682;50.874;3.656;2023-02-01T07:11:27;4.70;99.90
21047;DHT22;10682;50.874;3.656;2023-02-01T07:13:54;4.70;99.90
21047;DHT22;10682;50.874;3.656;2023-02-01T07:16:21;4.70;99.90
21047;DHT22;10682;50.874;3.656;2023-02-01T07:18:50;4.70;99.90
21047;DHT22;10682;50.874;3.656;2023-02-01T07:21:19;4.70;99.90
21047;DHT22;10682;50.874;3.656;2023-02-01T07:23:46;4.70;99.90
21047;DHT22;10682;50.874;3.656;2023-02-01T07:26:14;4.70;99.90
21047;DHT22;10682;50.874;3.656;2023-02-01T07:28:41;4.80;99.90
21047;DHT22;10682;50.874;3.656;2023-02-01T07:31:11;4.70;99.90
21047;DHT22;10682;50.874;3.656;2023-02-01T07:33:44;4.80;99.90
21047;DHT22;10682;50.874;3.656;2023-02-01T07:36:14;4.80;99.90
21047;DHT22;10682;50.874;3.656;2023-02-01T07:38:45;4.80;99.90
21047;DHT22;10682;50.874;3.656;2023-02-01T07:41:16;4.80;99.90
21047;DHT22;10682;50.874;3.656;2023-02-01T07:43:44;4.90;99.90
21047;DHT22;10682;50.874;3.656;2023-02-01T07:46:11;4.90;99.90
21047;DHT22;10682;50.874;3.656;2023-02-01T07:48:38;4.90;99.90
21047;DHT22;10682;50.874;3.656;2023-02-01T07:51:09;4.90;99.90
21047;DHT22;10682;50.874;3.656;2023-02-01T07:53:39;5.00;99.90
21047;DHT22;10682;50.874;3.656;2023-02-01T07:56:15;5.00;99.90
21047;DHT22;10682;50.874;3.656;2023-02-01T07:58:51;5.10;99.90
21047;DHT22;10682;50.874;3.656;2023-02-01T08:01:21;5.20;99.90
21047;DHT22;10682;50.874;3.656;2023-02-01T08:03:56;5.30;99.90
21047;DHT22;10682;50.874;3.656;2023-02-01T08:06:31;5.30;99.90
21047;DHT22;10682;50.874;3.656;2023-02-01T08:08:59;5.50;99.90
21047;DHT22;10682;50.874;3.656;2023-02-01T08:11:26;5.60;99.90
21047;DHT22;10682;50.874;3.656;2023-02-01T08:13:54;5.90;99.90
21047;DHT22;10682;50.874;3.656;2023-02-01T08:16:22;6.00;99.90
21047;DHT22;10682;50.874;3.656;2023-02-01T08:18:51;6.00;99.90
21047;DHT22;10682;50.874;3.656;2023-02-01T08:21:21;5.90;99.90
21047;DHT22;10682;50.874;3.656;2023-02-01T08:23:50;6.00;99.90
21047;DHT22;10682;50.874;3.656;2023-02-01T08:26:23;6.00;99.90
21047;DHT22;10682;50.874;3.656;2023-02-01T08:28:53;6.10;99.90
21047;DHT22;10682;50.874;3.656;2023-02-01T08:31:24;6.20;99.90
21047;DHT22;10682;50.874;3.656;2023-02-01T08:33:55;6.30;99.90
21047;DHT22;10682;50.874;3.656;2023-02-01T08:36:24;6.40;99.90
21047;DHT22;10682;50.874;3.656;2023-02-01T08:38:52;6.50;99.90
21047;DHT22;10682;50.874;3.656;2023-02-01T08:41:23;6.60;99.90
21047;DHT22;10682;50.874;3.656;2023-02-01T08:43:57;6.80;99.90
21047;DHT22;10682;50.874;3.656;2023-02-01T08:46:24;6.80;99.90
21047;DHT22;10682;50.874;3.656;2023-02-01T08:48:51;6.80;99.90
21047;DHT22;10682;50.874;3.656;2023-02-01T08:51:21;6.80;99.90
21047;DHT22;10682;50.874;3.656;2023-02-01T08:53:49;6.70;99.90
21047;DHT22;10682;50.874;3.656;2023-02-01T08:56:17;6.80;99.90
21047;DHT22;10682;50.874;3.656;2023-02-01T08:58:45;6.80;99.90
21047;DHT22;10682;50.874;3.656;2023-02-01T09:01:14;6.80;99.90
21047;DHT22;10682;50.874;3.656;2023-02-01T09:03:43;6.80;99.90
21047;DHT22;10682;50.874;3.656;2023-02-01T09:06:13;7.00;99.90
21047;DHT22;10682;50.874;3.656;2023-02-01T09:08:42;7.10;99.90
21047;DHT22;10682;50.874;3.656;2023-02-01T09:11:15;7.20;99.90
21047;DHT22;10682;50.874;3.656;2023-02-01T09:13:43;7.30;99.90
21047;DHT22;10682;50.874;3.656;2023-02-01T09:16:10;7.40;99.90
21047;DHT22;10682;50.874;3.656;2023-02-01T09:18:37;7.70;99.90
21047;DHT22;10682;50.874;3.656;2023-02-01T09:21:22;7.80;99.90
21047;DHT22;10682;50.874;3.656;2023-02-01T09:23:51;7.80;99.90
21047;DHT22;10682;50.874;3.656;2023-02-01T09:26:18;8.00;99.90
21047;DHT22;10682;50.874;3.656;2023-02-01T09:28:56;8.20;99.90
21047;DHT22;10682;50.874;3.656;2023-02-01T09:31:24;8.10;99.90
21047;DHT22;10682;50.874;3.656;2023-02-01T09:33:51;8.00;99.90
21047;DHT22;10682;50.874;3.656;2023-02-01T09:36:18;8.00;99.90
21047;DHT22;10682;50.874;3.656;2023-02-01T09:38:46;8.10;99.90
21047;DHT22;10682;50.874;3.656;2023-02-01T09:46:45;8.30;99.90
21047;DHT22;10682;50.874;3.656;2023-02-01T09:49:17;8.50;99.90
21047;DHT22;10682;50.874;3.656;2023-02-01T09:51:48;8.70;99.90
21047;DHT22;10682;50.874;3.656;2023-02-01T09:54:22;9.10;99.90
21047;DHT22;10682;50.874;3.656;2023-02-01T09:56:59;9.40;99.90
21047;DHT22;10682;50.874;3.656;2023-02-01T10:00:00;9.40;99.90
21047;DHT22;10682;50.874;3.656;2023-02-01T10:02:36;9.40;99.90
21047;DHT22;10682;50.874;3.656;2023-02-01T10:05:05;9.50;99.90
21047;DHT22;10682;50.874;3.656;2023-02-01T10:07:58;9.30;99.90
21047;DHT22;10682;50.874;3.656;2023-02-01T10:10:47;9.30;99.90
21047;DHT22;10682;50.874;3.656;2023-02-01T10:16:51;9.40;99.90
21047;DHT22;10682;50.874;3.656;2023-02-01T10:22:43;9.30;99.90
21047;DHT22;10682;50.874;3.656;2023-02-01T10:25:36;9.20;99.90
21047;DHT22;10682;50.874;3.656;2023-02-01T10:28:24;9.00;99.90
21047;DHT22;10682;50.874;3.656;2023-02-01T10:30:56;9.00;99.90
21047;DHT22;10682;50.874;3.656;2023-02-01T10:33:39;9.00;99.90
21047;DHT22;10682;50.874;3.656;2023-02-01T10:36:21;9.00;99.90
21047;DHT22;10682;50.874;3.656;2023-02-01T10:38:52;9.10;99.90
21047;DHT22;10682;50.874;3.656;2023-02-01T10:41:23;9.20;99.90
21047;DHT22;10682;50.874;3.656;2023-02-01T10:43:56;9.30;99.90
21047;DHT22;10682;50.874;3.656;2023-02-01T10:46:24;9.20;99.90
21047;DHT22;10682;50.874;3.656;2023-02-01T10:48:55;9.10;99.90
21047;DHT22;10682;50.874;3.656;2023-02-01T10:51:28;9.00;99.90
21047;DHT22;10682;50.874;3.656;2023-02-01T10:54:33;9.10;99.90
21047;DHT22;10682;50.874;3.656;2023-02-01T10:57:02;9.30;99.90
21047;DHT22;10682;50.874;3.656;2023-02-01T10:59:29;9.40;99.90
21047;DHT22;10682;50.874;3.656;2023-02-01T11:02:54;9.50;99.90
21047;DHT22;10682;50.874;3.656;2023-02-01T11:05:07;9.60;99.90
21047;DHT22;10682;50.874;3.656;2023-02-01T11:07:51;9.50;99.90
21047;DHT22;10682;50.874;3.656;2023-02-01T11:10:43;9.50;99.90
21047;DHT22;10682;50.874;3.656;2023-02-01T11:13:16;9.60;99.90
21047;DHT22;10682;50.874;3.656;2023-02-01T11:15:45;9.60;99.90
21047;DHT22;10682;50.874;3.656;2023-02-01T11:18:18;9.50;99.90
21047;DHT22;10682;50.874;3.656;2023-02-01T11:20:47;9.50;99.90
21047;DHT22;10682;50.874;3.656;2023-02-01T11:23:18;9.50;99.90
21047;DHT22;10682;50.874;3.656;2023-02-01T11:26:11;9.50;99.90
21047;DHT22;10682;50.874;3.656;2023-02-01T11:31:25;9.50;99.90
21047;DHT22;10682;50.874;3.656;2023-02-01T11:34:04;9.40;99.90
21047;DHT22;10682;50.874;3.656;2023-02-01T11:36:40;9.40;99.90
21047;DHT22;10682;50.874;3.656;2023-02-01T11:39:14;9.40;99.90
21047;DHT22;10682;50.874;3.656;2023-02-01T11:42:24;9.40;99.90
21047;DHT22;10682;50.874;3.656;2023-02-01T11:47:57;9.90;99.90
21047;DHT22;10682;50.874;3.656;2023-02-01T11:50:41;9.90;99.90
21047;DHT22;10682;50.874;3.656;2023-02-01T11:56:37;10.00;99.90
21047;DHT22;10682;50.874;3.656;2023-02-01T12:02:38;10.10;99.90
21047;DHT22;10682;50.874;3.656;2023-02-01T12:20:14;11.30;99.90
21047;DHT22;10682;50.874;3.656;2023-02-01T12:24:06;11.20;99.90
21047;DHT22;10682;50.874;3.656;2023-02-01T12:26:32;11.30;99.90
21047;DHT22;10682;50.874;3.656;2023-02-01T12:38:05;11.50;99.90
21047;DHT22;10682;50.874;3.656;2023-02-01T12:40:54;11.50;99.90
21047;DHT22;10682;50.874;3.656;2023-02-01T12:44:03;11.50;99.90
21047;DHT22;10682;50.874;3.656;2023-02-01T12:46:41;11.30;99.90
21047;DHT22;10682;50.874;3.656;2023-02-01T12:49:30;11.10;99.90
21047;DHT22;10682;50.874;3.656;2023-02-01T12:52:03;11.00;99.90
21047;DHT22;10682;50.874;3.656;2023-02-01T12:57:20;11.10;99.90
21047;DHT22;10682;50.874;3.656;2023-02-01T13:00:05;11.00;99.90
21047;DHT22;10682;50.874;3.656;2023-02-01T13:02:44;10.90;99.90
21047;DHT22;10682;50.874;3.656;2023-02-01T13:05:34;10.90;99.90
21047;DHT22;10682;50.874;3.656;2023-02-01T13:08:21;11.10;99.90
21047;DHT22;10682;50.874;3.656;2023-02-01T13:11:06;11.30;99.90
21047;DHT22;10682;50.874;3.656;2023-02-01T13:14:07;11.50;99.90
21047;DHT22;10682;50.874;3.656;2023-02-01T13:16:48;11.80;99.90
21047;DHT22;10682;50.874;3.656;2023-02-01T13:19:23;12.00;99.90
21047;DHT22;10682;50.874;3.656;2023-02-01T13:22:02;12.10;99.90
21047;DHT22;10682;50.874;3.656;2023-02-01T13:24:45;11.80;99.90
21047;DHT22;10682;50.874;3.656;2023-02-01T13:27:16;11.50;99.90
21047;DHT22;10682;50.874;3.656;2023-02-01T13:36:12;11.10;99.90
21047;DHT22;10682;50.874;3.656;2023-02-01T13:44:55;11.00;99.90
21047;DHT22;10682;50.874;3.656;2023-02-01T13:47:40;10.90;99.90
21047;DHT22;10682;50.874;3.656;2023-02-01T13:50:25;11.00;99.90
21047;DHT22;10682;50.874;3.656;2023-02-01T13:56:01;11.20;99.90
21047;DHT22;10682;50.874;3.656;2023-02-01T13:58:38;11.40;99.90
21047;DHT22;10682;50.874;3.656;2023-02-01T14:04:05;11.40;99.90
21047;DHT22;10682;50.874;3.656;2023-02-01T14:06:53;11.40;99.90
21047;DHT22;10682;50.874;3.656;2023-02-01T14:09:34;11.30;99.90
21047;DHT22;10682;50.874;3.656;2023-02-01T14:15:38;11.00;99.90
21047;DHT22;10682;50.874;3.656;2023-02-01T14:21:32;11.00;99.90
21047;DHT22;10682;50.874;3.656;2023-02-01T14:24:25;10.90;99.90
21047;DHT22;10682;50.874;3.656;2023-02-01T14:26:56;10.70;99.90
21047;DHT22;10682;50.874;3.656;2023-02-01T14:29:35;10.70;99.90
21047;DHT22;10682;50.874;3.656;2023-02-01T14:32:16;10.70;99.90
21047;DHT22;10682;50.874;3.656;2023-02-01T14:42:46;10.60;99.90
21047;DHT22;10682;50.874;3.656;2023-02-01T14:53:14;10.50;99.90
21047;DHT22;10682;50.874;3.656;2023-02-01T14:58:42;10.60;99.90
21047;DHT22;10682;50.874;3.656;2023-02-01T15:01:26;10.50;99.90
21047;DHT22;10682;50.874;3.656;2023-02-01T15:04:13;10.30;99.90
21047;DHT22;10682;50.874;3.656;2023-02-01T15:06:50;10.30;99.90
21047;DHT22;10682;50.874;3.656;2023-02-01T15:14:42;10.20;99.90
21047;DHT22;10682;50.874;3.656;2023-02-01T15:17:31;10.20;99.90
21047;DHT22;10682;50.874;3.656;2023-02-01T15:20:15;10.10;99.90
21047;DHT22;10682;50.874;3.656;2023-02-01T15:22:57;10.10;99.90
21047;DHT22;10682;50.874;3.656;2023-02-01T15:25:30;10.00;99.90
21047;DHT22;10682;50.874;3.656;2023-02-01T15:27:59;10.00;99.90
21047;DHT22;10682;50.874;3.656;2023-02-01T15:30:28;10.00;99.90
21047;DHT22;10682;50.874;3.656;2023-02-01T15:35:42;10.00;99.90
21047;DHT22;10682;50.874;3.656;2023-02-01T15:41:15;9.90;99.90
21047;DHT22;10682;50.874;3.656;2023-02-01T15:44:02;9.90;99.90
21047;DHT22;10682;50.874;3.656;2023-02-01T15:46:36;9.80;99.90
21047;DHT22;10682;50.874;3.656;2023-02-01T15:49:20;9.70;99.90
21047;DHT22;10682;50.874;3.656;2023-02-01T15:52:01;9.70;99.90
21047;DHT22;10682;50.874;3.656;2023-02-01T15:54:32;9.70;99.90
21047;DHT22;10682;50.874;3.656;2023-02-01T15:57:10;9.60;99.90
21047;DHT22;10682;50.874;3.656;2023-02-01T15:59:43;9.60;99.90
21047;DHT22;10682;50.874;3.656;2023-02-01T16:02:42;9.60;99.90
21047;DHT22;10682;50.874;3.656;2023-02-01T16:05:36;9.60;99.90
21047;DHT22;10682;50.874;3.656;2023-02-01T16:08:19;9.50;99.90
21047;DHT22;10682;50.874;3.656;2023-02-01T16:10:50;9.50;99.90
21047;DHT22;10682;50.874;3.656;2023-02-01T16:13:20;9.60;99.90
21047;DHT22;10682;50.874;3.656;2023-02-01T16:15:48;9.60;99.90
21047;DHT22;10682;50.874;3.656;2023-02-01T16:18:16;9.50;99.90
21047;DHT22;10682;50.874;3.656;2023-02-01T16:20:45;9.50;99.90
21047;DHT22;10682;50.874;3.656;2023-02-01T16:23:13;9.50;99.90
21047;DHT22;10682;50.874;3.656;2023-02-01T16:25:41;9.50;99.90
21047;DHT22;10682;50.874;3.656;2023-02-01T16:28:08;9.50;99.90
21047;DHT22;10682;50.874;3.656;2023-02-01T16:30:36;9.40;99.90
21047;DHT22;10682;50.874;3.656;2023-02-01T16:33:04;9.50;99.90
21047;DHT22;10682;50.874;3.656;2023-02-01T16:35:34;9.40;99.90
21047;DHT22;10682;50.874;3.656;2023-02-01T16:38:10;9.40;99.90
21047;DHT22;10682;50.874;3.656;2023-02-01T16:40:41;9.40;99.90
21047;DHT22;10682;50.874;3.656;2023-02-01T16:43:23;9.40;99.90
21047;DHT22;10682;50.874;3.656;2023-02-01T16:45:54;9.40;99.90
21047;DHT22;10682;50.874;3.656;2023-02-01T16:48:28;9.40;99.90
21047;DHT22;10682;50.874;3.656;2023-02-01T16:51:01;9.40;99.90
21047;DHT22;10682;50.874;3.656;2023-02-01T16:53:30;9.40;99.90
21047;DHT22;10682;50.874;3.656;2023-02-01T16:56:30;9.30;99.90
21047;DHT22;10682;50.874;3.656;2023-02-01T16:58:59;9.30;99.90
21047;DHT22;10682;50.874;3.656;2023-02-01T17:01:26;9.20;99.90
21047;DHT22;10682;50.874;3.656;2023-02-01T17:03:54;9.20;99.90
21047;DHT22;10682;50.874;3.656;2023-02-01T17:06:23;9.20;99.90
21047;DHT22;10682;50.874;3.656;2023-02-01T17:08:54;9.20;99.90
21047;DHT22;10682;50.874;3.656;2023-02-01T17:11:25;9.20;99.90
21047;DHT22;10682;50.874;3.656;2023-02-01T17:13:53;9.10;99.90
21047;DHT22;10682;50.874;3.656;2023-02-01T17:16:30;9.20;99.90
21047;DHT22;10682;50.874;3.656;2023-02-01T17:19:13;9.20;99.90
21047;DHT22;10682;50.874;3.656;2023-02-01T17:21:45;9.20;99.90
21047;DHT22;10682;50.874;3.656;2023-02-01T17:24:16;9.20;99.90
21047;DHT22;10682;50.874;3.656;2023-02-01T17:26:44;9.20;99.90
21047;DHT22;10682;50.874;3.656;2023-02-01T17:29:12;9.20;99.90
21047;DHT22;10682;50.874;3.656;2023-02-01T17:31:41;9.20;99.90
21047;DHT22;10682;50.874;3.656;2023-02-01T17:34:11;9.20;99.90
21047;DHT22;10682;50.874;3.656;2023-02-01T17:36:42;9.20;99.90
21047;DHT22;10682;50.874;3.656;2023-02-01T17:39:09;9.20;99.90
21047;DHT22;10682;50.874;3.656;2023-02-01T17:41:37;9.10;99.90
21047;DHT22;10682;50.874;3.656;2023-02-01T17:44:04;9.20;99.90
21047;DHT22;10682;50.874;3.656;2023-02-01T17:46:31;9.10;99.90
21047;DHT22;10682;50.874;3.656;2023-02-01T17:48:58;9.10;99.90
21047;DHT22;10682;50.874;3.656;2023-02-01T17:51:28;9.10;99.90
21047;DHT22;10682;50.874;3.656;2023-02-01T17:53:56;9.10;99.90
21047;DHT22;10682;50.874;3.656;2023-02-01T17:56:24;9.20;99.90
21047;DHT22;10682;50.874;3.656;2023-02-01T17:58:51;9.20;99.90
21047;DHT22;10682;50.874;3.656;2023-02-01T18:01:21;9.20;99.90
21047;DHT22;10682;50.874;3.656;2023-02-01T18:03:50;9.20;99.90
21047;DHT22;10682;50.874;3.656;2023-02-01T18:06:20;9.20;99.90
21047;DHT22;10682;50.874;3.656;2023-02-01T18:08:49;9.20;99.90
21047;DHT22;10682;50.874;3.656;2023-02-01T18:11:22;9.20;99.90
21047;DHT22;10682;50.874;3.656;2023-02-01T18:13:51;9.20;99.90
21047;DHT22;10682;50.874;3.656;2023-02-01T18:16:22;9.10;99.90
21047;DHT22;10682;50.874;3.656;2023-02-01T18:18:51;9.10;99.90
21047;DHT22;10682;50.874;3.656;2023-02-01T18:21:21;9.10;99.90
21047;DHT22;10682;50.874;3.656;2023-02-01T18:23:48;9.10;99.90
21047;DHT22;10682;50.874;3.656;2023-02-01T18:26:17;9.00;99.90
21047;DHT22;10682;50.874;3.656;2023-02-01T18:28:45;9.00;99.90
21047;DHT22;10682;50.874;3.656;2023-02-01T18:33:50;9.00;99.90
21047;DHT22;10682;50.874;3.656;2023-02-01T18:36:18;9.00;99.90